Time;durP1;ratioP1;P1;durP2;ratioP2;P2;SDS_P1;SDS_P2;PMS_P1;PMS_P2;Temp;Humidity;BMP_temperature;BMP_pressure;BME280_temperature;BME280_humidity;BME280_pressure;Samples;Min_cycle;Max_cycle;Signal;HPM_P1;HPM_P2
2023/07/29 00:06:30;;;;;;;4.00;1.75;;;;;;;25.04;61.51;100622.78;20941607;28;20470;-75
2023/07/29 00:16:53;;;;;;;5.25;1.90;;;;;;;24.94;60.05;100627.72;20946110;28;20056;-74
2023/07/29 00:27:18;;;;;;;3.08;1.52;;;;;;;24.81;58.01;100596.78;20965592;28;20052;-74
2023/07/29 00:37:40;;;;;;;3.10;1.88;;;;;;;24.65;57.16;100609.25;20951863;28;20057;-74
2023/07/29 00:48:05;;;;;;;3.60;1.83;;;;;;;24.61;56.45;100599.53;20897142;28;20045;-74
2023/07/29 00:58:29;;;;;;;4.70;2.03;;;;;;;24.58;56.83;100600.53;20894833;28;20060;-75
2023/07/29 01:09:00;;;;;;;5.20;1.80;;;;;;;24.54;58.34;100584.56;20894351;28;20095;-73
2023/07/29 01:19:43;;;;;;;3.38;1.80;;;;;;;24.48;58.91;100588.38;20964400;28;20048;-72
2023/07/29 01:30:09;;;;;;;6.70;2.30;;;;;;;24.56;57.72;100582.66;20958097;28;20107;-74
2023/07/29 01:40:34;;;;;;;4.50;2.13;;;;;;;24.62;57.88;100574.25;20901945;28;20409;-74
2023/07/29 01:50:59;;;;;;;4.75;2.50;;;;;;;24.62;59.84;100572.44;20915081;28;20683;-74
2023/07/29 02:01:01;;;;;;;4.40;2.40;;;;;;;24.60;63.32;100562.69;20897770;28;20088;-75
2023/07/29 02:11:27;;;;;;;6.65;3.20;;;;;;;24.60;69.77;100565.38;20898196;28;20084;-74
2023/07/29 02:21:50;;;;;;;4.82;2.67;;;;;;;24.62;77.63;100558.94;20896076;28;20490;-74
2023/07/29 02:32:15;;;;;;;5.88;2.88;;;;;;;24.68;80.58;100560.47;20875408;28;20045;-74
2023/07/29 02:42:38;;;;;;;4.93;2.78;;;;;;;24.80;81.15;100553.66;20901085;28;20071;-72
2023/07/29 02:53:02;;;;;;;8.40;2.95;;;;;;;24.85;83.95;100549.81;20900485;28;20140;-72
2023/07/29 03:03:25;;;;;;;8.80;3.03;;;;;;;24.98;96.46;100553.72;20904893;28;20049;-72
2023/07/29 03:13:49;;;;;;;9.77;3.00;;;;;;;25.02;100.00;100544.50;20893034;28;20080;-74
2023/07/29 03:24:11;;;;;;;5.50;2.80;;;;;;;25.01;100.00;100548.16;20920997;28;20049;-75
2023/07/29 03:34:36;;;;;;;8.07;3.30;;;;;;;25.01;100.00;100548.16;20908311;28;20049;-75
2023/07/29 03:44:58;;;;;;;9.45;3.00;;;;;;;25.02;100.00;100547.19;20913271;28;20098;-75
2023/07/29 03:55:23;;;;;;;5.47;2.78;;;;;;;25.27;100.00;100565.81;20879667;28;20468;-75
2023/07/29 04:05:46;;;;;;;8.63;2.13;;;;;;;25.70;100.00;100572.75;20897048;28;20647;-74
2023/07/29 04:16:10;;;;;;;5.93;2.63;;;;;;;26.18;100.00;100574.81;20919206;28;20083;-73
2023/07/29 04:26:33;;;;;;;3.22;2.28;;;;;;;26.73;98.40;100579.13;20891678;28;20497;-73
2023/07/29 04:36:57;;;;;;;5.43;2.40;;;;;;;27.27;95.04;100580.66;20888655;28;20049;-73
2023/07/29 04:47:19;;;;;;;3.75;1.88;;;;;;;27.83;92.16;100585.56;20901282;28;20586;-73
2023/07/29 04:57:24;;;;;;;7.25;2.17;;;;;;;28.43;89.82;100581.06;20903483;28;20045;-74
2023/07/29 05:07:46;;;;;;;5.20;1.80;;;;;;;28.99;87.42;100601.16;20906349;28;20053;-73
2023/07/29 05:18:10;;;;;;;4.25;2.00;;;;;;;29.59;87.48;100614.53;20884109;28;20421;-74
2023/07/29 05:28:33;;;;;;;4.35;2.00;;;;;;;30.01;89.59;100621.69;20892693;28;20106;-73
2023/07/29 05:38:57;;;;;;;6.57;1.95;;;;;;;30.52;89.35;100619.16;20871455;28;20044;-73
2023/07/29 05:49:00;;;;;;;6.28;2.00;;;;;;;31.16;87.64;100637.31;20896015;28;20394;-73
2023/07/29 05:59:25;;;;;;;5.05;1.75;;;;;;;32.18;80.13;100627.88;20882223;28;20052;-73
2023/07/29 06:09:49;;;;;;;8.35;2.40;;;;;;;32.62;73.24;100629.03;20855347;28;20100;-73
2023/07/29 06:20:15;;;;;;;6.18;2.28;;;;;;;33.22;71.37;100642.47;20828376;28;20136;-73
2023/07/29 06:30:37;;;;;;;6.47;1.63;;;;;;;33.75;66.88;100637.25;20900113;28;20044;-73
2023/07/29 06:41:02;;;;;;;9.13;2.15;;;;;;;34.08;60.30;100631.69;20912549;28;20049;-74
2023/07/29 06:51:24;;;;;;;6.82;2.50;;;;;;;33.93;58.33;100622.03;20915083;28;20148;-73
2023/07/29 07:01:48;;;;;;;5.20;2.42;;;;;;;33.96;56.27;100622.63;20804602;28;20083;-74
2023/07/29 07:12:11;;;;;;;5.93;1.83;;;;;;;34.27;58.21;100626.41;20900862;28;20597;-73
2023/07/29 07:22:36;;;;;;;8.32;2.45;;;;;;;34.14;57.01;100633.91;20885077;28;20148;-73
2023/07/29 07:32:58;;;;;;;7.13;2.30;;;;;;;34.47;57.30;100643.88;20884805;28;20444;-74
2023/07/29 07:43:24;;;;;;;6.78;2.15;;;;;;;35.04;56.17;100639.84;20879766;28;20052;-74
2023/07/29 07:53:46;;;;;;;;;;;;;;;35.11;56.15;100647.41;20864950;28;20114;-73
2023/07/29 08:04:10;;;;;;;5.93;2.28;;;;;;;35.55;56.35;100648.91;20905645;28;19924;-73
2023/07/29 08:14:33;;;;;;;7.05;2.40;;;;;;;35.56;56.78;100644.28;20875567;28;20060;-73
2023/07/29 08:24:45;;;;;;;7.47;2.35;;;;;;;35.74;54.80;100648.13;20896208;28;20047;-72
2023/07/29 08:35:08;;;;;;;5.53;1.85;;;;;;;35.94;53.30;100654.56;20917126;28;20041;-71
2023/07/29 08:45:36;;;;;;;6.97;2.20;;;;;;;36.12;49.13;100641.84;20911938;28;20049;-73
2023/07/29 08:55:40;;;;;;;7.43;2.40;;;;;;;35.58;51.04;100636.75;20936857;28;20044;-73
2023/07/29 09:06:05;;;;;;;6.95;2.42;;;;;;;35.67;48.00;100638.69;20959625;28;20037;-73
2023/07/29 09:16:28;;;;;;;4.63;1.87;;;;;;;35.53;42.42;100619.84;20908689;28;20061;-75
2023/07/29 09:26:53;;;;;;;8.23;2.28;;;;;;;35.91;39.46;100611.72;20934415;28;20056;-74
2023/07/29 09:37:21;;;;;;;4.85;2.30;;;;;;;36.56;38.31;100618.41;20900628;28;20143;-74
2023/07/29 09:47:48;;;;;;;9.73;2.50;;;;;;;36.60;38.94;100614.34;20914072;28;20072;-74
2023/07/29 09:58:10;;;;;;;5.70;2.25;;;;;;;36.94;38.61;100606.50;20959777;28;20040;-75
2023/07/29 10:08:37;;;;;;;4.90;2.00;;;;;;;37.23;36.90;100606.41;20906566;28;20052;-75
2023/07/29 10:19:01;;;;;;;5.38;1.83;;;;;;;37.21;36.54;100594.69;20924988;28;20054;-74
2023/07/29 10:29:26;;;;;;;8.73;2.20;;;;;;;36.73;37.10;100584.69;20867504;28;20052;-74
2023/07/29 10:39:55;;;;;;;4.43;1.80;;;;;;;36.35;33.29;100587.47;20871094;28;20052;-73
2023/07/29 10:50:23;;;;;;;2.42;0.93;;;;;;;36.66;29.42;100591.78;20901028;28;20473;-73
2023/07/29 11:00:43;;;;;;;3.35;1.20;;;;;;;36.95;27.42;100596.34;20903239;28;20049;-74
2023/07/29 11:11:06;;;;;;;3.63;1.40;;;;;;;37.09;27.74;100598.59;20893703;28;20172;-74
2023/07/29 11:21:30;;;;;;;7.32;1.50;;;;;;;37.21;28.94;100597.44;20869870;28;20106;-73
2023/07/29 11:31:55;;;;;;;4.32;1.40;;;;;;;37.05;28.52;100587.03;20860980;28;20071;-74
2023/07/29 11:42:17;;;;;;;4.90;1.20;;;;;;;36.97;27.57;100575.91;20853807;28;20044;-73
2023/07/29 11:52:43;;;;;;;3.85;1.10;;;;;;;36.87;26.82;100571.44;20901204;28;20464;-73
2023/07/29 12:03:08;;;;;;;4.40;1.38;;;;;;;36.75;27.87;100565.28;20888252;28;20102;-73
2023/07/29 12:13:32;;;;;;;5.82;1.63;;;;;;;36.32;29.15;100572.09;20913110;28;20081;-74
2023/07/29 12:23:55;;;;;;;;;;;;;;;36.27;30.91;100576.31;20901650;28;20045;-73
2023/07/29 12:34:22;;;;;;;3.70;1.40;;;;;;;36.04;31.25;100561.09;20939499;28;19927;-74
2023/07/29 12:44:45;;;;;;;5.30;1.20;;;;;;;36.03;31.13;100552.00;20899968;28;20058;-73
2023/07/29 12:55:13;;;;;;;3.13;1.13;;;;;;;35.90;31.47;100534.91;20888040;28;20056;-73
2023/07/29 13:05:38;;;;;;;1.92;1.30;;;;;;;35.97;32.45;100537.94;20902870;28;20156;-73
2023/07/29 13:16:06;;;;;;;4.28;1.40;;;;;;;35.79;32.94;100526.78;20893842;28;20076;-73
2023/07/29 13:26:13;;;;;;;3.75;1.48;;;;;;;35.62;32.80;100538.47;20917187;28;20087;-73
2023/07/29 13:36:38;;;;;;;5.20;1.70;;;;;;;35.21;33.55;100534.91;20902450;28;20049;-73
2023/07/29 13:47:01;;;;;;;5.93;1.40;;;;;;;35.10;33.98;100533.09;20903032;28;20064;-73
2023/07/29 13:57:25;;;;;;;4.97;1.70;;;;;;;35.00;34.33;100525.81;20893122;28;20045;-73
2023/07/29 14:07:48;;;;;;;4.80;1.92;;;;;;;34.67;34.94;100515.97;20900765;28;20045;-73
2023/07/29 14:18:12;;;;;;;3.42;1.70;;;;;;;35.01;35.38;100502.84;20935036;28;20406;-72
2023/07/29 14:28:54;;;;;;;6.65;1.70;;;;;;;34.74;37.60;100504.34;20891949;28;20072;-73
2023/07/29 14:39:28;;;;;;;6.63;1.50;;;;;;;34.44;38.42;100498.81;20855747;28;20409;-74
2023/07/29 14:49:34;;;;;;;4.95;1.73;;;;;;;34.64;37.51;100500.66;20903936;28;20045;-74
2023/07/29 14:59:58;;;;;;;7.50;1.52;;;;;;;34.11;38.35;100488.91;20860254;28;20456;-74
2023/07/29 15:10:21;;;;;;;4.50;1.50;;;;;;;33.84;38.52;100483.06;20864722;28;20057;-73
2023/07/29 15:20:45;;;;;;;3.65;1.55;;;;;;;32.98;38.80;100475.66;20943576;28;20409;-74
2023/07/29 15:31:08;;;;;;;2.85;1.45;;;;;;;32.37;39.52;100483.34;20904395;28;20048;-74
2023/07/29 15:41:34;;;;;;;5.55;1.65;;;;;;;31.80;41.14;100482.41;20957759;28;20056;-74
2023/07/29 15:51:56;;;;;;;4.60;1.60;;;;;;;31.35;41.66;100479.44;20956225;28;20076;-74
2023/07/29 16:02:20;;;;;;;3.50;1.30;;;;;;;30.90;42.51;100486.44;20900009;28;20581;-74
2023/07/29 16:12:43;;;;;;;6.65;1.85;;;;;;;30.54;43.36;100495.41;20919390;28;20044;-74
2023/07/29 16:23:07;;;;;;;8.85;4.30;;;;;;;30.32;45.75;100493.31;20967050;28;20063;-73
2023/07/29 16:33:30;;;;;;;5.72;3.10;;;;;;;30.09;50.13;100502.22;20934628;28;20053;-74
2023/07/29 16:43:55;;;;;;;5.55;2.40;;;;;;;29.91;53.35;100504.34;20895888;28;20048;-73
2023/07/29 16:54:18;;;;;;;8.55;2.92;;;;;;;29.69;59.00;100515.81;20991211;28;20045;-74
2023/07/29 17:04:42;;;;;;;6.40;2.38;;;;;;;29.45;63.04;100530.19;20978943;28;20105;-74
2023/07/29 17:15:08;;;;;;;5.50;2.13;;;;;;;29.28;66.32;100534.00;20988079;28;20064;-74
2023/07/29 17:25:32;;;;;;;5.88;2.42;;;;;;;29.05;65.59;100529.19;20958802;28;20056;-73
2023/07/29 17:35:55;;;;;;;4.40;1.90;;;;;;;28.83;61.87;100529.69;20945994;28;20383;-73
2023/07/29 17:46:19;;;;;;;6.03;2.08;;;;;;;28.66;60.80;100527.13;20949651;28;20072;-74
2023/07/29 17:56:42;;;;;;;8.45;2.13;;;;;;;28.50;60.75;100532.66;20984779;28;20049;-73
2023/07/29 18:07:06;;;;;;;6.53;2.28;;;;;;;28.40;61.92;100537.78;20970936;28;20053;-73
2023/07/29 18:17:29;;;;;;;7.18;2.17;;;;;;;28.29;62.34;100537.56;20956453;28;20063;-73
2023/07/29 18:27:53;;;;;;;4.40;1.73;;;;;;;28.19;62.36;100559.94;20967875;28;20107;-72
2023/07/29 18:38:16;;;;;;;8.68;2.90;;;;;;;28.13;64.47;100555.75;20962667;28;20048;-72
2023/07/29 18:48:40;;;;;;;9.52;3.08;;;;;;;28.09;66.31;100556.91;20966186;28;20102;-73
2023/07/29 18:59:03;;;;;;;4.55;1.98;;;;;;;28.01;66.70;100553.78;20965357;28;20048;-73
2023/07/29 19:09:27;;;;;;;8.35;2.20;;;;;;;27.84;67.91;100551.16;20946234;28;20412;-72
2023/07/29 19:19:49;;;;;;;14.18;4.53;;;;;;;27.77;68.55;100546.09;20839488;28;20382;-73
2023/07/29 19:30:15;;;;;;;5.18;1.95;;;;;;;27.66;71.12;100554.00;20886380;28;20041;-72
2023/07/29 19:40:37;;;;;;;6.93;2.00;;;;;;;27.63;72.74;100551.50;20898713;28;20045;-73
2023/07/29 19:51:02;;;;;;;5.95;3.35;;;;;;;27.59;74.56;100539.06;20871607;28;20073;-73
2023/07/29 20:01:24;;;;;;;8.30;3.40;;;;;;;27.58;74.16;100536.41;20905881;28;20495;-73
2023/07/29 20:11:48;;;;;;;9.38;2.00;;;;;;;27.49;76.28;100529.69;20879723;28;20469;-74
2023/07/29 20:22:11;;;;;;;4.57;1.80;;;;;;;27.42;81.41;100522.88;20882717;28;20091;-74
2023/07/29 20:32:36;;;;;;;5.35;1.88;;;;;;;27.36;83.17;100524.09;20901073;28;20045;-74
2023/07/29 20:42:39;;;;;;;5.68;1.80;;;;;;;27.30;84.84;100523.56;20910130;28;20055;-74
2023/07/29 20:53:03;;;;;;;4.43;1.95;;;;;;;27.25;83.61;100539.19;20927620;28;20086;-73
2023/07/29 21:03:26;;;;;;;4.15;1.63;;;;;;;27.25;79.58;100529.25;20975863;28;20045;-74
2023/07/29 21:13:51;;;;;;;3.47;1.55;;;;;;;27.27;78.80;100516.47;20940722;28;20053;-74
2023/07/29 21:23:55;;;;;;;4.03;1.95;;;;;;;27.21;79.42;100537.66;20934077;28;20057;-74
2023/07/29 21:34:20;;;;;;;6.45;2.03;;;;;;;27.14;79.52;100537.13;20963819;28;20086;-74
2023/07/29 21:44:43;;;;;;;5.50;1.55;;;;;;;27.06;76.72;100533.94;20901381;28;20056;-74
2023/07/29 21:55:09;;;;;;;6.05;2.47;;;;;;;27.03;75.44;100527.84;20918867;28;20497;-74
2023/07/29 22:05:32;;;;;;;4.18;2.08;;;;;;;26.97;77.68;100518.22;20877150;28;20059;-74
2023/07/29 22:15:56;;;;;;;7.60;1.70;;;;;;;26.89;80.17;100510.53;20900753;28;20077;-74
2023/07/29 22:26:18;;;;;;;7.20;2.00;;;;;;;26.83;82.07;100510.84;20937818;28;20110;-75
2023/07/29 22:36:43;;;;;;;5.63;2.10;;;;;;;26.82;85.57;100495.53;20904424;28;20107;-74
2023/07/29 22:47:06;;;;;;;5.35;2.05;;;;;;;26.78;88.96;100490.38;20886098;28;20044;-74
2023/07/29 22:57:31;;;;;;;5.72;2.00;;;;;;;26.75;86.45;100477.00;20889166;28;20067;-74
2023/07/29 23:07:54;;;;;;;4.40;1.60;;;;;;;26.69;84.06;100470.09;20912545;28;20037;-74
2023/07/29 23:18:18;;;;;;;4.13;1.77;;;;;;;26.69;86.81;100458.38;20898074;28;20044;-74
2023/07/29 23:28:40;;;;;;;3.55;1.65;;;;;;;26.67;90.68;100455.75;20947787;28;20102;-75
2023/07/29 23:39:05;;;;;;;7.75;2.00;;;;;;;26.61;93.70;100445.25;20945568;28;20084;-74
2023/07/29 23:49:29;;;;;;;7.13;2.00;;;;;;;26.53;96.45;100437.56;20939075;28;20052;-74
2023/07/29 23:59:53;;;;;;;5.90;2.00;;;;;;;26.44;95.87;100435.38;20933526;28;20076;-74
